createdAt,value
2018-04-17T00:01:27.957Z,30.59
2018-04-17T00:03:58.642Z,30.93
2018-04-17T00:06:30.499Z,31.10
2018-04-17T00:09:02.500Z,29.70
2018-04-17T00:11:35.485Z,28.47
2018-04-17T00:14:08.275Z,26.64
2018-04-17T00:16:40.278Z,25.63
2018-04-17T00:19:13.272Z,24.65
2018-04-17T00:21:45.597Z,23.97
2018-04-17T00:24:16.414Z,23.34
2018-04-17T00:26:48.525Z,23.08
2018-04-17T00:29:20.492Z,22.79
2018-04-17T00:31:52.535Z,22.64
2018-04-17T00:34:24.482Z,22.54
2018-04-17T00:36:56.525Z,22.32
2018-04-17T00:42:14.548Z,22.10
2018-04-17T00:44:47.637Z,22.04
2018-04-17T00:47:18.436Z,21.91
2018-04-17T00:49:50.115Z,21.88
2018-04-17T00:52:23.261Z,21.81
2018-04-17T00:54:56.242Z,21.79
2018-04-17T00:57:28.248Z,21.86
2018-04-17T01:00:00.224Z,21.98
2018-04-17T01:04:56.537Z,21.84
2018-04-17T01:07:28.474Z,21.83
2018-04-17T01:10:00.479Z,21.63
2018-04-17T01:12:32.254Z,21.45
2018-04-17T01:15:04.228Z,21.07
2018-04-17T01:17:36.241Z,20.87
2018-04-17T01:20:09.567Z,20.85
2018-04-17T01:22:40.480Z,20.77
2018-04-17T01:25:12.583Z,20.83
2018-04-17T01:27:43.119Z,20.74
2018-04-17T01:30:15.588Z,20.85
2018-04-17T01:32:46.497Z,20.91
2018-04-17T01:35:20.305Z,20.91
2018-04-17T01:37:53.534Z,20.90
2018-04-17T01:40:24.482Z,20.95
2018-04-17T01:42:56.781Z,21.01
2018-04-17T01:45:28.940Z,21.00
2018-04-17T01:48:01.474Z,20.93
2018-04-17T01:50:33.499Z,20.84
2018-04-17T01:53:06.290Z,20.62
2018-04-17T01:55:39.329Z,20.67
2018-04-17T01:58:11.289Z,20.78
2018-04-17T02:04:41.231Z,20.78
2018-04-17T02:07:13.283Z,20.64
2018-04-17T02:09:45.267Z,20.65
2018-04-17T02:12:17.256Z,20.67
2018-04-17T02:14:49.272Z,20.53
2018-04-17T02:17:25.299Z,20.45
2018-04-17T02:19:57.519Z,20.39
2018-04-17T02:23:21.250Z,20.13
2018-04-17T02:25:53.245Z,20.04
2018-04-17T02:28:25.261Z,19.92
2018-04-17T02:30:57.705Z,19.67
2018-04-17T02:33:29.569Z,19.82
2018-04-17T02:36:01.491Z,19.86
2018-04-17T02:38:33.597Z,19.74
2018-04-17T02:41:05.480Z,19.76
2018-04-17T02:43:37.482Z,19.57
2018-04-17T02:46:10.692Z,19.67
2018-04-17T02:48:42.564Z,19.74
2018-04-17T02:53:48.430Z,19.61
2018-04-17T03:00:52.252Z,19.56
2018-04-17T03:03:24.300Z,19.54
2018-04-17T03:05:56.497Z,19.54
2018-04-17T03:08:31.291Z,19.57
2018-04-17T03:11:04.314Z,19.59
2018-04-17T03:17:32.858Z,19.62
2018-04-17T03:20:05.274Z,19.64
2018-04-17T03:22:38.546Z,19.76
2018-04-17T03:25:10.544Z,19.78
2018-04-17T03:27:43.256Z,19.65
2018-04-17T03:30:16.470Z,19.62
2018-04-17T03:32:48.474Z,19.66
2018-04-17T03:35:20.559Z,19.55
2018-04-17T03:37:51.493Z,19.51
2018-04-17T03:40:23.250Z,19.53
2018-04-17T03:42:56.298Z,19.43
2018-04-17T03:45:28.976Z,19.38
2018-04-17T03:48:00.575Z,19.26
2018-04-17T03:50:32.101Z,19.32
2018-04-17T03:53:04.280Z,19.22
2018-04-17T03:55:36.232Z,19.06
2018-04-17T03:58:09.519Z,18.88
2018-04-17T04:00:41.488Z,18.73
2018-04-17T04:03:13.579Z,18.65
2018-04-17T04:05:48.867Z,18.68
2018-04-17T04:11:12.588Z,18.61
2018-04-17T04:13:43.500Z,18.61
2018-04-17T04:16:27.292Z,18.66
2018-04-17T04:19:10.623Z,18.62
2018-04-17T04:21:55.717Z,18.59
2018-04-17T04:24:40.088Z,18.64
2018-04-17T04:27:13.251Z,18.69
2018-04-17T04:29:45.594Z,18.67
2018-04-17T04:32:17.499Z,18.69
2018-04-17T04:34:49.265Z,18.45
2018-04-17T04:37:22.253Z,18.57
2018-04-17T04:39:54.545Z,18.64
2018-04-17T04:42:27.246Z,18.52
2018-04-17T04:44:59.277Z,18.54
2018-04-17T04:47:31.494Z,18.60
2018-04-17T04:50:03.499Z,18.60
2018-04-17T04:52:37.255Z,18.59
2018-04-17T04:55:09.262Z,18.57
2018-04-17T04:57:41.656Z,18.61
2018-04-17T05:00:13.517Z,18.55
2018-04-17T05:02:45.603Z,18.40
2018-04-17T05:05:18.254Z,18.38
2018-04-17T05:07:52.114Z,18.42
2018-04-17T05:10:25.560Z,18.39
2018-04-17T05:12:56.108Z,18.41
2018-04-17T05:17:20.117Z,18.31
2018-04-17T05:22:34.624Z,18.09
2018-04-17T05:25:06.140Z,18.11
2018-04-17T05:27:39.515Z,18.18
2018-04-17T05:30:11.612Z,18.18
2018-04-17T05:32:43.358Z,18.06
2018-04-17T05:35:16.502Z,17.96
2018-04-17T05:37:48.612Z,17.83
2018-04-17T05:40:19.498Z,17.72
2018-04-17T05:42:52.297Z,17.67
2018-04-17T05:45:25.263Z,17.65
2018-04-17T05:47:58.278Z,17.61
2018-04-17T05:53:10.262Z,17.43
2018-04-17T05:55:43.277Z,17.48
2018-04-17T05:58:15.595Z,17.46
2018-04-17T06:01:21.920Z,17.40
2018-04-17T06:03:53.589Z,17.49
2018-04-17T06:06:24.490Z,17.45
2018-04-17T06:08:57.595Z,17.46
2018-04-17T06:11:29.486Z,17.40
2018-04-17T06:14:01.490Z,17.36
2018-04-17T06:16:33.289Z,17.34
2018-04-17T06:19:05.267Z,17.33
2018-04-17T06:23:38.499Z,17.45
2018-04-17T06:26:55.102Z,17.47
2018-04-17T06:29:27.304Z,17.50
2018-04-17T06:31:59.284Z,17.42
2018-04-17T06:34:31.513Z,17.42
2018-04-17T06:37:04.965Z,17.39
2018-04-17T06:39:36.595Z,17.34
2018-04-17T06:42:07.465Z,17.26
2018-04-17T06:44:39.277Z,17.24
2018-04-17T06:47:12.257Z,17.24
2018-04-17T06:49:44.243Z,17.28
2018-04-17T06:52:17.222Z,17.29
2018-04-17T06:54:50.492Z,17.27
2018-04-17T06:57:22.276Z,17.27
2018-04-17T06:59:54.262Z,17.28
2018-04-17T07:02:26.851Z,17.16
2018-04-17T07:04:59.268Z,17.22
2018-04-17T07:07:31.531Z,17.15
2018-04-17T07:10:04.276Z,17.15
2018-04-17T07:12:36.551Z,17.22
2018-04-17T07:15:08.571Z,17.19
2018-04-17T07:17:42.282Z,17.28
2018-04-17T07:20:15.503Z,17.35
2018-04-17T07:22:48.506Z,17.32
2018-04-17T07:25:22.266Z,17.39
2018-04-17T07:27:55.527Z,17.40
2018-04-17T07:30:27.516Z,17.40
2018-04-17T07:32:59.373Z,17.41
2018-04-17T07:35:31.518Z,17.30
2018-04-17T07:38:03.523Z,17.34
2018-04-17T07:40:37.808Z,17.34
2018-04-17T07:43:09.639Z,17.36
2018-04-17T07:45:40.366Z,17.37
2018-04-17T07:48:27.508Z,17.38
2018-04-17T07:50:59.529Z,17.38
2018-04-17T07:53:32.767Z,17.39
2018-04-17T07:56:06.286Z,17.38
2018-04-17T07:58:40.403Z,17.29
2018-04-17T08:01:14.516Z,17.23
2018-04-17T08:03:47.990Z,17.35
2018-04-17T08:06:20.641Z,17.45
2018-04-17T08:08:54.661Z,17.29
2018-04-17T08:11:28.549Z,17.35
2018-04-17T08:14:00.578Z,17.42
2018-04-17T08:16:34.539Z,17.39
2018-04-17T08:19:07.564Z,17.28
2018-04-17T08:21:40.544Z,17.23
2018-04-17T08:24:49.295Z,17.25
2018-04-17T08:27:22.238Z,17.27
2018-04-17T08:29:55.270Z,17.29
2018-04-17T08:32:28.278Z,17.30
2018-04-17T08:35:01.592Z,17.47
2018-04-17T08:37:34.597Z,17.40
2018-04-17T08:40:06.506Z,17.30
2018-04-17T08:42:40.099Z,17.28
2018-04-17T08:45:14.213Z,17.37
2018-04-17T08:47:47.517Z,17.50
2018-04-17T08:50:20.567Z,17.54
2018-04-17T08:52:52.641Z,17.41
2018-04-17T08:55:24.503Z,17.41
2018-04-17T08:57:58.497Z,17.33
2018-04-17T09:00:31.510Z,17.34
2018-04-17T09:03:04.262Z,17.29
2018-04-17T09:05:38.247Z,17.31
2018-04-17T09:08:12.265Z,17.33
2018-04-17T09:10:46.272Z,17.30
2018-04-17T09:13:18.590Z,17.32
2018-04-17T09:15:52.222Z,17.35
2018-04-17T09:18:25.484Z,17.31
2018-04-17T09:20:59.588Z,17.34
2018-04-17T09:23:33.261Z,17.40
2018-04-17T09:26:06.216Z,17.42
2018-04-17T09:28:39.227Z,17.36
2018-04-17T09:31:12.234Z,17.35
2018-04-17T09:33:45.277Z,17.35
2018-04-17T09:36:18.213Z,17.36
2018-04-17T09:38:51.280Z,17.40
2018-04-17T09:41:24.521Z,17.39
2018-04-17T09:43:57.538Z,17.36
2018-04-17T09:46:31.262Z,17.35
2018-04-17T09:49:04.222Z,17.31
2018-04-17T09:51:37.922Z,17.33
2018-04-17T09:54:11.532Z,17.32
2018-04-17T09:56:44.554Z,17.30
2018-04-17T09:59:16.125Z,17.27
2018-04-17T10:01:49.535Z,17.32
2018-04-17T10:04:21.463Z,17.30
2018-04-17T10:06:53.236Z,17.24
2018-04-17T10:09:26.649Z,17.14
2018-04-17T10:12:00.271Z,17.10
2018-04-17T10:14:33.635Z,17.04
2018-04-17T10:18:59.512Z,16.88
2018-04-17T10:21:32.348Z,16.71
2018-04-17T10:24:05.512Z,16.63
2018-04-17T10:26:38.504Z,16.46
2018-04-17T10:29:12.254Z,16.39
2018-04-17T10:31:45.253Z,16.58
2018-04-17T10:34:19.265Z,16.57
2018-04-17T10:36:52.511Z,16.68
2018-04-17T10:39:26.246Z,16.74
2018-04-17T10:42:00.246Z,16.73
2018-04-17T10:44:32.671Z,16.79
2018-04-17T10:47:06.620Z,16.72
2018-04-17T10:49:39.670Z,16.60
2018-04-17T10:52:11.641Z,16.51
2018-04-17T10:54:45.638Z,16.49
2018-04-17T10:57:18.143Z,16.47
2018-04-17T10:59:51.666Z,16.30
2018-04-17T11:04:24.700Z,15.89
2018-04-17T11:06:57.588Z,15.88
2018-04-17T11:09:30.414Z,15.95
2018-04-17T11:12:04.611Z,16.12
2018-04-17T11:14:38.834Z,16.26
2018-04-17T11:17:11.744Z,16.36
2018-04-17T11:19:44.757Z,16.31
2018-04-17T11:24:24.895Z,16.22
2018-04-17T11:26:57.709Z,16.23
2018-04-17T11:29:32.748Z,16.30
2018-04-17T11:32:05.604Z,16.37
2018-04-17T11:34:38.609Z,16.32
2018-04-17T11:37:10.684Z,16.29
2018-04-17T11:39:43.686Z,16.30
2018-04-17T11:42:16.570Z,16.27
2018-04-17T11:44:49.356Z,16.07
2018-04-17T11:47:23.545Z,15.83
2018-04-17T11:49:57.912Z,15.75
2018-04-17T11:52:30.658Z,15.85
2018-04-17T11:55:02.901Z,15.93
2018-04-17T11:57:34.780Z,15.81
2018-04-17T12:00:06.731Z,15.46
2018-04-17T12:02:38.713Z,15.51
2018-04-17T12:05:12.770Z,15.69
2018-04-17T12:07:45.403Z,15.63
2018-04-17T12:10:18.937Z,15.73
2018-04-17T12:12:51.818Z,15.80
2018-04-17T12:15:25.040Z,15.87
2018-04-17T12:17:59.227Z,15.90
2018-04-17T12:20:33.162Z,15.88
2018-04-17T12:23:07.289Z,15.94
2018-04-17T12:25:41.921Z,15.97
2018-04-17T12:28:13.883Z,16.00
2018-04-17T12:30:47.591Z,15.97
2018-04-17T12:33:20.646Z,16.02
2018-04-17T12:35:52.833Z,15.88
2018-04-17T12:38:26.646Z,15.69
2018-04-17T12:40:59.685Z,15.75
2018-04-17T12:43:32.668Z,15.74
2018-04-17T12:46:05.225Z,15.71
2018-04-17T12:48:39.551Z,15.70
2018-04-17T12:51:13.598Z,15.67
2018-04-17T12:53:47.677Z,15.59
2018-04-17T12:56:20.710Z,15.30
2018-04-17T12:58:53.832Z,15.11
2018-04-17T13:01:25.841Z,15.11
2018-04-17T13:03:58.181Z,15.13
2018-04-17T13:06:32.511Z,14.96
2018-04-17T13:09:07.728Z,14.84
2018-04-17T13:11:40.638Z,14.76
2018-04-17T13:14:12.617Z,14.99
2018-04-17T13:16:46.564Z,15.13
2018-04-17T13:22:07.747Z,14.61
2018-04-17T13:24:40.737Z,14.47
2018-04-17T13:27:15.645Z,14.35
2018-04-17T13:29:47.669Z,14.27
2018-04-17T13:32:19.885Z,14.16
2018-04-17T13:34:52.706Z,14.35
2018-04-17T13:37:25.704Z,14.52
2018-04-17T13:39:59.928Z,14.45
2018-04-17T13:42:32.689Z,14.34
2018-04-17T13:45:06.697Z,14.24
2018-04-17T13:47:39.842Z,14.37
2018-04-17T13:50:13.689Z,14.57
2018-04-17T13:52:48.622Z,14.64
2018-04-17T13:55:22.664Z,14.48
2018-04-17T13:57:55.899Z,14.64
2018-04-17T14:00:29.694Z,14.86
2018-04-17T14:03:03.704Z,14.99
2018-04-17T14:05:36.039Z,15.11
2018-04-17T14:08:09.784Z,14.98
2018-04-17T14:10:42.694Z,14.80
2018-04-17T14:13:15.860Z,14.62
2018-04-17T14:15:50.625Z,14.53
2018-04-17T14:18:24.826Z,14.47
2018-04-17T14:20:57.896Z,14.39
2018-04-17T14:23:30.676Z,14.61
2018-04-17T14:26:03.062Z,14.83
2018-04-17T14:28:36.855Z,15.00
2018-04-17T14:31:09.410Z,15.15
2018-04-17T14:33:43.505Z,15.26
2018-04-17T14:36:17.650Z,15.15
2018-04-17T14:38:50.855Z,15.10
2018-04-17T14:41:23.670Z,15.23
2018-04-17T14:43:56.783Z,15.31
2018-04-17T14:46:29.815Z,15.23
2018-04-17T14:49:02.804Z,15.14
2018-04-17T14:51:35.630Z,15.07
2018-04-17T14:54:09.271Z,15.06
2018-04-17T14:56:43.851Z,15.23
2018-04-17T14:59:15.575Z,15.24
2018-04-17T15:01:50.074Z,15.24
2018-04-17T15:04:23.493Z,15.32
2018-04-17T15:06:56.634Z,15.44
2018-04-17T15:09:30.803Z,15.35
2018-04-17T15:12:02.509Z,15.53
2018-04-17T15:14:34.510Z,15.51
2018-04-17T15:17:07.559Z,15.43
2018-04-17T15:19:40.581Z,15.56
2018-04-17T15:22:13.509Z,15.71
2018-04-17T15:24:46.564Z,15.66
2018-04-17T15:27:19.310Z,15.69
2018-04-17T15:29:52.338Z,15.90
2018-04-17T15:34:05.268Z,16.03
2018-04-17T15:36:38.603Z,16.12
2018-04-17T15:39:12.576Z,16.13
2018-04-17T15:41:46.430Z,16.16
2018-04-17T15:44:18.491Z,16.20
2018-04-17T15:46:50.504Z,16.43
2018-04-17T15:49:23.826Z,16.50
2018-04-17T15:51:56.305Z,16.61
2018-04-17T15:54:28.281Z,16.82
2018-04-17T15:57:00.257Z,17.03
2018-04-17T15:59:33.613Z,17.11
2018-04-17T16:02:04.497Z,17.17
2018-04-17T16:04:36.288Z,17.36
2018-04-17T16:07:08.531Z,17.39
2018-04-17T16:09:40.614Z,17.48
2018-04-17T16:12:12.618Z,17.60
2018-04-17T16:14:43.181Z,17.73
2018-04-17T16:17:16.309Z,17.71
2018-04-17T16:19:49.275Z,17.66
2018-04-17T16:23:33.512Z,17.72
2018-04-17T16:26:05.517Z,17.88
2018-04-17T16:28:37.621Z,17.89
2018-04-17T16:31:09.397Z,17.97
2018-04-17T16:33:41.648Z,18.14
2018-04-17T16:36:14.836Z,18.22
2018-04-17T16:38:48.083Z,18.34
2018-04-17T16:43:22.098Z,18.53
2018-04-17T16:45:55.517Z,18.49
2018-04-17T16:48:28.518Z,18.53
2018-04-17T16:51:00.605Z,18.66
2018-04-17T16:53:34.720Z,18.77
2018-04-17T16:56:08.624Z,18.82
2018-04-17T17:00:46.073Z,18.88
2018-04-17T17:03:19.639Z,18.75
2018-04-17T17:05:52.295Z,18.64
2018-04-17T17:08:25.401Z,18.62
2018-04-17T17:10:58.242Z,18.62
2018-04-17T17:13:31.306Z,18.80
2018-04-17T17:16:04.305Z,18.96
2018-04-17T17:18:36.771Z,19.05
2018-04-17T17:21:10.244Z,18.93
2018-04-17T17:23:42.281Z,19.12
2018-04-17T17:28:53.226Z,19.07
2018-04-17T17:31:25.270Z,19.13
2018-04-17T17:37:27.583Z,19.33
2018-04-17T17:39:58.089Z,19.56
2018-04-17T17:42:30.316Z,19.71
2018-04-17T17:45:02.247Z,19.89
2018-04-17T17:49:42.120Z,20.10
2018-04-17T17:52:14.285Z,20.26
2018-04-17T17:54:46.225Z,20.40
2018-04-17T17:57:18.272Z,20.42
2018-04-17T17:59:50.265Z,20.20
2018-04-17T18:02:46.540Z,20.05
2018-04-17T18:05:18.293Z,20.08
2018-04-17T18:07:50.303Z,20.02
2018-04-17T18:10:22.526Z,20.25
2018-04-17T18:12:54.513Z,20.53
2018-04-17T18:15:26.266Z,20.64
2018-04-17T18:18:01.352Z,20.87
2018-04-17T18:20:33.436Z,21.03
2018-04-17T18:25:13.343Z,21.11
2018-04-17T18:27:45.496Z,21.00
2018-04-17T18:30:17.588Z,21.13
2018-04-17T18:32:48.499Z,21.25
2018-04-17T18:35:20.420Z,21.44
2018-04-17T18:37:52.486Z,21.38
2018-04-17T18:40:24.503Z,21.35
2018-04-17T18:42:56.492Z,21.38
2018-04-17T18:47:09.285Z,21.61
2018-04-17T18:49:41.436Z,21.96
2018-04-17T18:52:13.509Z,22.17
2018-04-17T18:54:45.585Z,22.25
2018-04-17T18:58:08.083Z,22.33
2018-04-17T19:00:40.336Z,22.46
2018-04-17T19:03:12.284Z,22.56
2018-04-17T19:05:44.570Z,22.45
2018-04-17T19:08:15.090Z,22.37
2018-04-17T19:10:47.272Z,22.54
2018-04-17T19:13:19.281Z,22.74
2018-04-17T19:15:52.289Z,22.87
2018-04-17T19:18:24.595Z,23.02
2018-04-17T19:20:56.521Z,22.97
2018-04-17T19:23:30.505Z,23.14
2018-04-17T19:26:03.563Z,23.31
2018-04-17T19:28:35.514Z,23.33
2018-04-17T19:31:09.277Z,23.55
2018-04-17T19:33:42.244Z,23.64
2018-04-17T19:36:15.586Z,23.64
2018-04-17T19:38:47.399Z,23.77
2018-04-17T19:41:21.110Z,23.83
2018-04-17T19:43:54.523Z,23.82
2018-04-17T19:46:27.512Z,23.77
2018-04-17T19:49:01.281Z,23.70
2018-04-17T19:51:33.590Z,23.68
2018-04-17T19:54:05.491Z,23.99
2018-04-17T19:56:38.538Z,24.27
2018-04-17T19:59:10.549Z,24.49
2018-04-17T20:01:44.348Z,24.64
2018-04-17T20:04:16.125Z,24.80
2018-04-17T20:06:49.536Z,24.92
2018-04-17T20:09:22.583Z,24.96
2018-04-17T20:11:55.565Z,25.08
2018-04-17T20:14:28.549Z,25.11
2018-04-17T20:17:00.526Z,24.95
2018-04-17T20:19:33.547Z,25.06
2018-04-17T20:22:05.544Z,25.09
2018-04-17T20:24:38.646Z,25.18
2018-04-17T20:27:10.598Z,25.37
2018-04-17T20:29:44.645Z,25.42
2018-04-17T20:32:18.654Z,25.59
2018-04-17T20:34:51.633Z,25.84
2018-04-17T20:37:24.673Z,25.96
2018-04-17T20:39:57.660Z,25.96
2018-04-17T20:42:29.582Z,26.03
2018-04-17T20:45:02.665Z,26.21
2018-04-17T20:47:34.410Z,26.37
2018-04-17T20:50:07.557Z,26.48
2018-04-17T20:52:40.618Z,26.63
2018-04-17T20:55:14.024Z,26.67
2018-04-17T20:57:47.289Z,26.76
2018-04-17T21:00:20.554Z,26.73
2018-04-17T21:02:53.494Z,26.75
2018-04-17T21:08:09.493Z,26.95
2018-04-17T21:10:43.120Z,27.02
2018-04-17T21:13:16.278Z,27.18
2018-04-17T21:15:49.269Z,27.40
2018-04-17T21:18:22.518Z,27.52
2018-04-17T21:20:56.286Z,27.65
2018-04-17T21:23:29.490Z,27.75
2018-04-17T21:26:03.255Z,27.66
2018-04-17T21:28:35.955Z,27.79
2018-04-17T21:31:09.507Z,27.84
2018-04-17T21:33:42.104Z,27.84
2018-04-17T21:36:15.246Z,28.02
2018-04-17T21:38:48.554Z,27.93
2018-04-17T21:41:21.406Z,27.92
2018-04-17T21:43:54.548Z,27.74
2018-04-17T21:46:27.616Z,27.93
2018-04-17T21:49:01.123Z,27.97
2018-04-17T21:51:34.624Z,28.09
2018-04-17T21:54:08.224Z,28.26
2018-04-17T21:56:41.517Z,28.39
2018-04-17T21:59:14.638Z,28.51
2018-04-17T22:01:47.608Z,28.31
2018-04-17T22:04:19.647Z,28.30
2018-04-17T22:06:51.515Z,28.55
2018-04-17T22:09:24.718Z,28.58
2018-04-17T22:11:56.569Z,28.69
2018-04-17T22:14:29.601Z,28.86
2018-04-17T22:17:03.283Z,29.12
2018-04-17T22:19:36.594Z,29.23
2018-04-17T22:22:09.426Z,29.24
2018-04-17T22:24:42.663Z,29.32
2018-04-17T22:27:14.702Z,29.22
2018-04-17T22:29:53.286Z,29.32
2018-04-17T22:32:25.511Z,29.39
2018-04-17T22:34:57.519Z,29.38
2018-04-17T22:37:30.994Z,29.55
2018-04-17T22:47:10.274Z,29.87
2018-04-17T22:49:43.560Z,30.07
2018-04-17T22:52:15.526Z,30.36
2018-04-17T22:54:48.619Z,30.83
2018-04-17T22:57:22.627Z,31.13
2018-04-17T22:59:53.636Z,31.56
2018-04-17T23:02:24.631Z,32.19
2018-04-17T23:04:55.580Z,32.67
2018-04-17T23:07:29.635Z,33.19
2018-04-17T23:10:00.587Z,34.04
2018-04-17T23:14:20.703Z,35.31
2018-04-17T23:16:51.617Z,36.34
2018-04-17T23:19:22.586Z,37.31
2018-04-17T23:24:46.282Z,38.72
2018-04-17T23:27:22.647Z,39.09
2018-04-17T23:29:54.546Z,39.47
2018-04-17T23:33:45.614Z,40.13
2018-04-17T23:36:18.090Z,40.21
2018-04-17T23:38:52.924Z,40.30
2018-04-17T23:41:25.915Z,40.70
2018-04-17T23:43:58.131Z,40.97
2018-04-17T23:46:30.501Z,41.63
2018-04-17T23:49:03.665Z,41.92
2018-04-17T23:51:34.581Z,41.96
2018-04-17T23:54:05.567Z,41.75
2018-04-17T23:56:36.551Z,41.62
2018-04-17T23:59:10.494Z,41.22
